Phoenix, Arizona
Current Conditions -  °F | °C
As of 11:51 PM on Friday 24 Oct 2014 (Local Time) from KPHX Reporting Station
Clear Clear  
Wind Chill: 79°   Ceiling: Unl
Heat Index: 79°   Visibility: 10mi
Dew Point: 49°   Wind: 5mph
Humidity: 35%   Direction: 150°SSE
Pressure: 29.98"   Gusts: NA
Location:  33.45°N, 112.08°W
Report Text: KPHX 250651Z 15004KT 10SM CLR 26/09 A2998 RMK AO2 SLP133 T02610094 403560200
Loading
Personal Weather Stations






























Interactive Weather Map New forecast layout! Learn more

10-Day Weather Forecast

Advertisements
Track Severe Weather on mobile